createdAt,value
2023-03-10T00:00:41.048Z,3.00
2023-03-10T00:03:09.047Z,2.90
2023-03-10T00:05:39.298Z,3.00
2023-03-10T00:08:07.737Z,2.90
2023-03-10T00:10:35.546Z,3.20
2023-03-10T00:13:03.341Z,3.50
2023-03-10T00:15:31.691Z,3.10
2023-03-10T00:17:59.690Z,3.40
2023-03-10T00:20:27.578Z,3.27
2023-03-10T00:22:56.720Z,3.00
2023-03-10T00:25:24.538Z,3.70
2023-03-10T00:27:52.757Z,2.87
2023-03-10T00:30:20.781Z,3.20
2023-03-10T00:32:50.257Z,3.40
2023-03-10T00:35:18.329Z,3.10
2023-03-10T00:37:46.117Z,3.23
2023-03-10T00:40:16.386Z,3.15
2023-03-10T00:42:44.808Z,3.20
2023-03-10T00:45:12.735Z,3.10
2023-03-10T00:47:40.766Z,3.00
2023-03-10T00:50:09.923Z,2.95
2023-03-10T00:52:37.804Z,2.70
2023-03-10T00:55:06.249Z,2.92
2023-03-10T00:57:36.891Z,3.20
2023-03-10T01:00:06.445Z,2.78
2023-03-10T01:02:34.179Z,3.05
2023-03-10T01:05:02.008Z,3.15
2023-03-10T01:07:29.738Z,3.40
2023-03-10T01:09:57.627Z,3.28
2023-03-10T01:12:25.417Z,3.20
2023-03-10T01:14:54.638Z,3.40
2023-03-10T01:17:22.384Z,3.35
2023-03-10T01:19:50.246Z,2.80
2023-03-10T01:22:18.125Z,3.00
2023-03-10T01:24:45.884Z,3.13
2023-03-10T01:27:13.774Z,3.28
2023-03-10T01:29:41.581Z,3.42
2023-03-10T01:32:10.880Z,3.10
2023-03-10T01:34:39.415Z,3.22
2023-03-10T01:37:07.253Z,3.28
2023-03-10T01:39:35.125Z,3.37
2023-03-10T01:42:03.018Z,3.03
2023-03-10T01:44:30.772Z,3.30
2023-03-10T01:46:59.619Z,3.60
2023-03-10T01:49:34.683Z,3.45
2023-03-10T01:52:06.233Z,3.00
2023-03-10T01:54:42.210Z,3.10
2023-03-10T01:57:10.709Z,3.27
2023-03-10T01:59:38.594Z,3.00
2023-03-10T02:02:06.620Z,3.10
2023-03-10T02:04:42.663Z,3.30
2023-03-10T02:07:11.777Z,4.00
2023-03-10T02:09:43.474Z,3.70
2023-03-10T02:12:12.252Z,3.60
2023-03-10T02:14:40.877Z,3.60
2023-03-10T02:17:11.295Z,3.60
2023-03-10T02:20:00.380Z,3.83
2023-03-10T02:22:28.480Z,3.60
2023-03-10T02:25:02.609Z,3.78
2023-03-10T02:27:35.285Z,3.83
2023-03-10T02:30:07.037Z,3.58
2023-03-10T02:32:38.468Z,4.00
2023-03-10T02:35:06.993Z,3.25
2023-03-10T02:37:36.507Z,3.75
2023-03-10T02:40:06.020Z,3.35
2023-03-10T02:42:37.509Z,3.25
2023-03-10T02:45:05.870Z,3.78
2023-03-10T02:47:33.652Z,3.60
2023-03-10T02:50:02.538Z,3.40
2023-03-10T02:52:37.579Z,3.63
2023-03-10T02:55:06.060Z,3.70
2023-03-10T02:57:35.181Z,3.50
2023-03-10T03:00:05.288Z,3.65
2023-03-10T03:02:33.689Z,3.80
2023-03-10T03:05:01.740Z,3.75
2023-03-10T03:07:29.672Z,4.30
2023-03-10T03:09:57.739Z,4.03
2023-03-10T03:12:25.625Z,4.55
2023-03-10T03:14:55.107Z,4.30
2023-03-10T03:17:22.910Z,4.43
2023-03-10T03:19:50.656Z,4.38
2023-03-10T03:22:18.434Z,4.63
2023-03-10T03:24:46.345Z,4.53
2023-03-10T03:27:14.333Z,4.65
2023-03-10T03:29:42.120Z,4.93
2023-03-10T03:32:11.522Z,5.00
2023-03-10T03:34:39.494Z,4.80
2023-03-10T03:37:07.273Z,4.85
2023-03-10T03:39:35.204Z,4.60
2023-03-10T03:42:03.082Z,4.45
2023-03-10T03:44:30.987Z,4.70
2023-03-10T03:46:58.748Z,4.53
2023-03-10T03:49:28.848Z,4.40
2023-03-10T03:51:56.615Z,4.85
2023-03-10T03:54:24.492Z,4.57
2023-03-10T03:56:52.301Z,4.28
2023-03-10T03:59:20.339Z,4.50
2023-03-10T04:01:48.323Z,4.15
2023-03-10T04:04:16.199Z,4.32
2023-03-10T04:06:45.389Z,4.40
2023-03-10T04:09:13.759Z,4.13
2023-03-10T04:11:41.559Z,4.20
2023-03-10T04:14:09.542Z,4.07
2023-03-10T04:16:37.363Z,4.20
2023-03-10T04:19:07.528Z,4.22
2023-03-10T04:21:35.865Z,4.50
2023-03-10T04:24:06.057Z,4.60
2023-03-10T04:26:34.430Z,4.93
2023-03-10T04:29:02.425Z,4.93
2023-03-10T04:31:30.700Z,5.50
2023-03-10T04:33:58.657Z,4.80
2023-03-10T04:36:26.390Z,4.82
2023-03-10T04:38:54.335Z,4.80
2023-03-10T04:41:23.565Z,4.70
2023-03-10T04:43:51.902Z,4.82
2023-03-10T04:46:19.844Z,4.63
2023-03-10T04:48:47.826Z,4.93
2023-03-10T04:51:15.573Z,4.93
2023-03-10T04:53:43.363Z,4.80
2023-03-10T04:56:12.512Z,5.03
2023-03-10T04:58:41.816Z,4.28
2023-03-10T05:01:10.804Z,4.43
2023-03-10T05:03:38.734Z,4.15
2023-03-10T05:06:12.428Z,4.13
2023-03-10T05:08:40.307Z,4.45
2023-03-10T05:11:09.131Z,4.53
2023-03-10T05:13:36.951Z,4.97
2023-03-10T05:16:13.776Z,4.35
2023-03-10T05:18:42.903Z,4.35
2023-03-10T05:21:10.900Z,4.07
2023-03-10T05:23:39.079Z,4.00
2023-03-10T05:26:07.910Z,4.47
2023-03-10T05:28:36.041Z,4.32
2023-03-10T05:31:09.657Z,4.07
2023-03-10T05:33:37.422Z,4.47
2023-03-10T05:36:07.779Z,3.95
2023-03-10T05:38:36.561Z,4.22
2023-03-10T05:41:08.160Z,4.57
2023-03-10T05:43:36.422Z,4.05
2023-03-10T05:46:06.097Z,4.38
2023-03-10T05:48:33.969Z,4.30
2023-03-10T05:51:03.068Z,4.15
2023-03-10T05:53:32.465Z,4.07
2023-03-10T05:56:00.714Z,4.20
2023-03-10T05:58:28.722Z,4.30
2023-03-10T06:00:56.467Z,3.97
2023-03-10T06:03:25.782Z,3.97
2023-03-10T06:05:53.757Z,4.18
2023-03-10T06:08:21.538Z,3.78
2023-03-10T06:10:49.358Z,3.95
2023-03-10T06:13:20.103Z,4.10
2023-03-10T06:15:50.947Z,4.00
2023-03-10T06:18:19.391Z,4.15
2023-03-10T06:20:49.496Z,4.60
2023-03-10T06:23:18.168Z,4.28
2023-03-10T06:25:46.092Z,4.03
2023-03-10T06:28:13.914Z,4.15
2023-03-10T06:30:41.717Z,3.85
2023-03-10T06:33:09.578Z,4.20
2023-03-10T06:35:37.318Z,4.18
2023-03-10T06:38:06.410Z,4.18
2023-03-10T06:40:34.502Z,4.35
2023-03-10T06:43:02.253Z,4.45
2023-03-10T06:45:30.159Z,3.75
2023-03-10T06:47:58.285Z,4.00
2023-03-10T06:50:26.107Z,3.92
2023-03-10T06:52:53.881Z,3.58
2023-03-10T06:55:23.061Z,4.25
2023-03-10T06:57:50.875Z,4.25
2023-03-10T07:00:19.878Z,4.30
2023-03-10T07:02:47.654Z,4.07
2023-03-10T07:05:15.682Z,4.32
2023-03-10T07:07:43.584Z,3.92
2023-03-10T07:10:12.640Z,3.97
2023-03-10T07:12:41.807Z,4.20
2023-03-10T07:15:10.796Z,3.97
2023-03-10T07:17:38.774Z,4.15
2023-03-10T07:20:07.972Z,4.60
2023-03-10T07:22:35.909Z,4.30
2023-03-10T07:25:05.033Z,4.20
2023-03-10T07:27:32.843Z,4.07
2023-03-10T07:30:02.077Z,4.00
2023-03-10T07:32:29.997Z,4.05
2023-03-10T07:34:57.963Z,4.10
2023-03-10T07:37:25.882Z,3.88
2023-03-10T07:39:55.021Z,4.20
2023-03-10T07:42:22.904Z,4.13
2023-03-10T07:44:50.743Z,4.57
2023-03-10T07:47:20.240Z,3.90
2023-03-10T07:49:48.248Z,4.18
2023-03-10T07:52:16.351Z,4.28
2023-03-10T07:54:45.228Z,4.45
2023-03-10T07:57:13.803Z,4.47
2023-03-10T07:59:42.271Z,4.68
2023-03-10T08:02:13.102Z,4.10
2023-03-10T08:04:43.114Z,4.45
2023-03-10T08:07:10.983Z,4.68
2023-03-10T08:09:39.052Z,5.20
2023-03-10T08:12:08.108Z,5.15
2023-03-10T08:14:36.505Z,5.15
2023-03-10T08:17:04.410Z,5.72
2023-03-10T08:19:32.339Z,5.30
2023-03-10T08:22:03.602Z,5.20
2023-03-10T08:24:31.556Z,4.72
2023-03-10T08:26:59.429Z,4.70
2023-03-10T08:29:27.221Z,4.55
2023-03-10T08:31:55.025Z,3.75
2023-03-10T08:34:23.346Z,3.05
2023-03-10T08:36:51.388Z,2.67
2023-03-10T08:39:20.634Z,2.28
2023-03-10T08:41:49.791Z,2.30
2023-03-10T08:44:19.329Z,2.65
2023-03-10T08:46:49.151Z,2.40
2023-03-10T08:49:18.695Z,2.60
2023-03-10T08:51:46.774Z,2.70
2023-03-10T08:54:17.331Z,3.03
2023-03-10T08:56:46.459Z,2.90
2023-03-10T08:59:14.292Z,3.08
2023-03-10T09:01:42.142Z,3.40
2023-03-10T09:04:11.382Z,3.28
2023-03-10T09:06:39.486Z,4.00
2023-03-10T09:09:10.082Z,2.95
2023-03-10T09:11:40.511Z,3.70
2023-03-10T09:14:11.186Z,3.90
2023-03-10T09:16:40.333Z,3.28
2023-03-10T09:19:08.486Z,3.00
2023-03-10T09:21:36.290Z,2.83
2023-03-10T09:24:04.881Z,2.80
2023-03-10T09:26:34.345Z,3.47
2023-03-10T09:29:02.596Z,2.63
2023-03-10T09:31:34.350Z,3.00
2023-03-10T09:34:03.232Z,2.55
2023-03-10T09:36:32.560Z,2.45
2023-03-10T09:39:01.340Z,2.53
2023-03-10T09:42:01.795Z,2.15
2023-03-10T09:44:40.079Z,2.38
2023-03-10T09:47:24.012Z,2.20
2023-03-10T09:50:03.993Z,2.42
2023-03-10T09:52:44.079Z,2.53
2023-03-10T09:55:21.000Z,2.22
2023-03-10T09:57:51.650Z,2.40
2023-03-10T10:00:23.886Z,2.58
2023-03-10T10:03:01.178Z,2.90
2023-03-10T10:05:33.666Z,2.83
2023-03-10T10:08:07.080Z,3.00
2023-03-10T10:10:38.427Z,2.53
2023-03-10T10:13:13.646Z,2.80
2023-03-10T10:15:45.502Z,3.30
2023-03-10T10:18:24.990Z,3.35
2023-03-10T10:20:59.135Z,3.00
2023-03-10T10:23:33.954Z,2.97
2023-03-10T10:26:09.805Z,3.40
2023-03-10T10:28:43.295Z,3.10
2023-03-10T10:31:13.973Z,3.00
2023-03-10T10:33:58.193Z,3.10
2023-03-10T10:36:28.805Z,3.03
2023-03-10T10:38:59.074Z,3.15
2023-03-10T10:41:30.439Z,2.75
2023-03-10T10:44:01.782Z,3.00
2023-03-10T10:46:32.882Z,2.97
2023-03-10T10:49:09.198Z,3.20
2023-03-10T10:51:38.960Z,2.95
2023-03-10T10:54:24.115Z,3.13
2023-03-10T10:56:57.077Z,3.35
2023-03-10T10:59:30.011Z,3.75
2023-03-10T11:01:59.765Z,3.60
2023-03-10T11:04:31.248Z,3.40
2023-03-10T11:07:13.803Z,3.40
2023-03-10T11:09:41.689Z,3.10
2023-03-10T11:12:20.158Z,3.28
2023-03-10T11:15:01.699Z,3.22
2023-03-10T11:17:34.339Z,3.17
2023-03-10T11:20:14.983Z,3.28
2023-03-10T11:22:47.118Z,3.20
2023-03-10T11:25:33.296Z,3.30
2023-03-10T11:28:13.709Z,3.10
2023-03-10T11:30:47.969Z,3.03
2023-03-10T11:33:26.156Z,3.10
2023-03-10T11:36:01.019Z,2.80
2023-03-10T11:38:38.456Z,2.88
2023-03-10T11:41:12.491Z,2.95
2023-03-10T11:43:50.885Z,2.60
2023-03-10T11:46:24.878Z,2.60
2023-03-10T11:49:00.616Z,2.30
2023-03-10T11:51:38.853Z,2.55
2023-03-10T11:54:16.092Z,2.47
2023-03-10T11:56:44.262Z,2.47
2023-03-10T11:59:18.037Z,2.50
2023-03-10T12:01:51.703Z,2.47
2023-03-10T12:04:25.063Z,2.90
2023-03-10T12:07:00.083Z,2.92
2023-03-10T12:09:42.313Z,3.20
2023-03-10T12:12:15.858Z,3.38
2023-03-10T12:14:44.877Z,3.53
2023-03-10T12:17:14.282Z,3.75
2023-03-10T12:20:12.127Z,3.85
2023-03-10T12:22:42.538Z,4.03
2023-03-10T12:25:43.977Z,4.05
2023-03-10T12:28:24.550Z,4.20
2023-03-10T12:30:56.517Z,3.45
2023-03-10T12:33:48.819Z,3.78
2023-03-10T12:36:24.579Z,3.88
2023-03-10T12:38:57.828Z,3.95
2023-03-10T12:41:44.477Z,3.88
2023-03-10T12:44:45.565Z,3.45
2023-03-10T12:47:22.778Z,3.75
2023-03-10T12:49:56.266Z,3.30
2023-03-10T12:52:32.545Z,3.53
2023-03-10T12:55:17.758Z,3.45
2023-03-10T12:57:55.089Z,3.10
2023-03-10T13:00:31.956Z,3.30
2023-03-10T13:03:05.724Z,3.22
2023-03-10T13:05:35.621Z,3.20
2023-03-10T13:08:13.220Z,3.47
2023-03-10T13:10:43.365Z,3.30
2023-03-10T13:13:17.865Z,2.95
2023-03-10T13:15:58.510Z,3.60
2023-03-10T13:18:26.322Z,3.28
2023-03-10T13:20:54.177Z,4.18
2023-03-10T13:23:24.184Z,3.72
2023-03-10T13:25:55.070Z,4.15
2023-03-10T13:28:23.051Z,4.20
2023-03-10T13:30:50.855Z,4.50
2023-03-10T13:33:25.321Z,3.92
2023-03-10T13:35:53.655Z,4.50
2023-03-10T13:38:24.708Z,4.10
2023-03-10T13:41:02.369Z,4.72
2023-03-10T13:43:38.296Z,4.95
2023-03-10T13:46:09.745Z,4.93
2023-03-10T13:48:38.529Z,4.80
2023-03-10T13:51:08.641Z,5.30
2023-03-10T13:53:36.555Z,4.88
2023-03-10T13:56:18.796Z,4.68
2023-03-10T13:58:48.529Z,4.75
2023-03-10T14:01:23.315Z,4.55
2023-03-10T14:03:53.947Z,4.97
2023-03-10T14:06:22.924Z,4.60
2023-03-10T14:08:51.490Z,4.47
2023-03-10T14:11:31.208Z,4.88
2023-03-10T14:14:00.302Z,3.78
2023-03-10T14:16:54.357Z,4.88
2023-03-10T14:19:51.301Z,3.50
2023-03-10T14:22:30.938Z,3.90
2023-03-10T14:25:01.109Z,3.80
2023-03-10T14:27:34.981Z,3.58
2023-03-10T14:30:12.074Z,3.78
2023-03-10T14:32:40.577Z,3.65
2023-03-10T14:35:12.725Z,3.70
2023-03-10T14:37:40.597Z,3.70
2023-03-10T14:40:10.820Z,3.42
2023-03-10T14:42:41.564Z,3.45
2023-03-10T14:45:22.144Z,6.28
2023-03-10T14:47:50.377Z,2.97
2023-03-10T14:50:20.120Z,3.20
2023-03-10T14:52:48.052Z,31.50
2023-03-10T14:55:16.557Z,3.30
2023-03-10T14:57:48.273Z,3.20
2023-03-10T15:00:19.350Z,3.00
2023-03-10T15:02:47.823Z,2.47
2023-03-10T15:05:17.027Z,2.70
2023-03-10T15:07:45.443Z,2.90
2023-03-10T15:10:13.910Z,2.80
2023-03-10T15:12:42.475Z,3.30
2023-03-10T15:15:16.684Z,3.30
2023-03-10T15:17:44.971Z,4.20
2023-03-10T15:20:17.528Z,3.00
2023-03-10T15:22:47.050Z,3.17
2023-03-10T15:25:17.657Z,3.25
2023-03-10T15:27:48.394Z,3.40
2023-03-10T15:30:21.335Z,3.65
2023-03-10T15:32:49.235Z,4.00
2023-03-10T15:35:17.968Z,4.68
2023-03-10T15:37:46.056Z,5.05
2023-03-10T15:40:17.650Z,5.43
2023-03-10T15:42:46.160Z,4.70
2023-03-10T15:45:14.941Z,4.88
2023-03-10T15:47:44.236Z,4.55
2023-03-10T15:50:13.608Z,5.32
2023-03-10T15:52:46.859Z,4.75
2023-03-10T15:55:16.302Z,5.32
2023-03-10T15:57:44.402Z,5.47
2023-03-10T16:00:13.679Z,5.25
2023-03-10T16:02:41.502Z,5.40
2023-03-10T16:05:11.687Z,5.40
2023-03-10T16:07:39.704Z,6.40
2023-03-10T16:10:09.976Z,6.40
2023-03-10T16:12:37.772Z,6.60
2023-03-10T16:15:06.138Z,6.45
2023-03-10T16:17:33.981Z,6.50
2023-03-10T16:20:06.570Z,6.32
2023-03-10T16:22:40.357Z,6.35
2023-03-10T16:25:10.169Z,6.50
2023-03-10T16:27:37.985Z,7.07
2023-03-10T16:30:06.831Z,7.22
2023-03-10T16:32:34.867Z,9.50
2023-03-10T16:35:02.853Z,7.55
2023-03-10T16:37:30.928Z,6.53
2023-03-10T16:40:00.162Z,6.80
2023-03-10T16:42:28.066Z,7.60
2023-03-10T16:44:57.111Z,11.82
2023-03-10T16:47:25.131Z,20.58
2023-03-10T16:49:53.097Z,16.77
2023-03-10T16:52:20.942Z,23.17
2023-03-10T16:54:48.873Z,22.15
2023-03-10T16:57:18.114Z,25.63
2023-03-10T16:59:46.575Z,22.48
2023-03-10T17:02:16.557Z,17.63
2023-03-10T17:04:45.307Z,13.85
2023-03-10T17:07:14.216Z,12.07
2023-03-10T17:09:42.085Z,14.07
2023-03-10T17:12:10.224Z,14.52
2023-03-10T17:14:39.374Z,12.82
2023-03-10T17:17:08.049Z,13.57
2023-03-10T17:19:37.638Z,13.65
2023-03-10T17:22:05.465Z,13.68
2023-03-10T17:24:33.261Z,14.65
2023-03-10T17:27:01.122Z,12.95
2023-03-10T17:29:28.910Z,11.15
2023-03-10T17:31:58.068Z,11.48
2023-03-10T17:34:27.163Z,11.60
2023-03-10T17:36:55.003Z,10.63
2023-03-10T17:39:23.997Z,10.63
2023-03-10T17:41:51.731Z,9.65
2023-03-10T17:44:19.650Z,10.63
2023-03-10T17:46:47.847Z,9.10
2023-03-10T17:49:18.073Z,9.60
2023-03-10T17:51:47.290Z,9.15
2023-03-10T17:54:17.049Z,9.55
2023-03-10T17:56:44.924Z,9.88
2023-03-10T17:59:14.341Z,9.20
2023-03-10T18:01:44.739Z,8.18
2023-03-10T18:04:13.840Z,8.35
2023-03-10T18:06:43.510Z,9.18
2023-03-10T18:09:14.309Z,8.65
2023-03-10T18:11:42.726Z,8.57
2023-03-10T18:14:10.918Z,8.40
2023-03-10T18:16:40.523Z,9.45
2023-03-10T18:19:10.892Z,9.05
2023-03-10T18:21:39.448Z,8.85
2023-03-10T18:24:09.247Z,9.15
2023-03-10T18:26:38.081Z,10.35
2023-03-10T18:29:06.221Z,10.30
2023-03-10T18:31:35.487Z,10.18
2023-03-10T18:34:04.286Z,9.98
2023-03-10T18:36:33.071Z,10.00
2023-03-10T18:39:02.423Z,10.07
2023-03-10T18:41:32.738Z,10.32
2023-03-10T18:44:01.321Z,10.85
2023-03-10T18:46:29.422Z,12.15
2023-03-10T18:48:57.252Z,9.57
2023-03-10T18:51:25.905Z,9.23
2023-03-10T18:53:54.293Z,9.48
2023-03-10T18:56:23.797Z,10.35
2023-03-10T18:58:53.065Z,10.10
2023-03-10T19:01:21.078Z,10.43
2023-03-10T19:03:48.964Z,10.65
2023-03-10T19:06:16.951Z,10.48
2023-03-10T19:08:44.785Z,9.30
2023-03-10T19:11:13.013Z,9.18
2023-03-10T19:13:44.106Z,10.55
2023-03-10T19:16:13.740Z,12.10
2023-03-10T19:18:41.615Z,13.45
2023-03-10T19:21:10.037Z,15.25
2023-03-10T19:23:37.937Z,11.07
2023-03-10T19:26:05.995Z,12.60
2023-03-10T19:28:34.073Z,10.68
2023-03-10T19:31:01.938Z,9.13
2023-03-10T19:33:31.128Z,10.75
2023-03-10T19:36:03.011Z,9.38
2023-03-10T19:38:30.954Z,9.23
2023-03-10T19:40:58.872Z,9.52
2023-03-10T19:43:26.762Z,10.90
2023-03-10T19:46:00.928Z,10.60
2023-03-10T19:48:28.892Z,12.93
2023-03-10T19:50:59.813Z,13.95
2023-03-10T19:53:29.861Z,13.30
2023-03-10T19:56:00.308Z,11.07
2023-03-10T19:58:28.489Z,21.60
2023-03-10T20:00:58.240Z,17.38
2023-03-10T20:03:27.529Z,14.07
2023-03-10T20:05:56.062Z,12.88
2023-03-10T20:08:26.228Z,13.93
2023-03-10T20:10:55.498Z,20.58
2023-03-10T20:13:23.457Z,27.55
2023-03-10T20:15:51.223Z,20.60
2023-03-10T20:18:21.182Z,16.15
2023-03-10T20:20:49.046Z,14.75
2023-03-10T20:23:17.336Z,12.05
2023-03-10T20:25:46.769Z,11.90
2023-03-10T20:28:15.390Z,11.60
2023-03-10T20:30:43.234Z,15.20
2023-03-10T20:33:11.290Z,13.45
2023-03-10T20:35:39.114Z,11.68
2023-03-10T20:38:07.054Z,13.88
2023-03-10T20:40:36.676Z,20.52
2023-03-10T20:43:08.395Z,17.13
2023-03-10T20:45:36.343Z,17.90
2023-03-10T20:48:07.687Z,19.17
2023-03-10T20:50:36.018Z,16.67
2023-03-10T20:53:04.440Z,15.68
2023-03-10T20:55:33.116Z,17.40
2023-03-10T20:58:01.866Z,17.20
2023-03-10T21:00:31.471Z,18.33
2023-03-10T21:03:00.832Z,16.05
2023-03-10T21:05:28.965Z,16.07
2023-03-10T21:07:58.064Z,16.70
2023-03-10T21:10:26.684Z,21.85
2023-03-10T21:12:54.474Z,26.13
2023-03-10T21:15:23.767Z,17.70
2023-03-10T21:17:53.050Z,16.73
2023-03-10T21:20:23.638Z,17.10
2023-03-10T21:22:52.077Z,17.50
2023-03-10T21:25:22.109Z,15.50
2023-03-10T21:27:52.669Z,15.93
2023-03-10T21:30:21.517Z,14.83
2023-03-10T21:32:49.347Z,15.57
2023-03-10T21:35:18.792Z,14.27
2023-03-10T21:37:48.448Z,13.03
2023-03-10T21:40:19.734Z,15.10
2023-03-10T21:42:47.897Z,15.57
2023-03-10T21:45:18.814Z,15.07
2023-03-10T21:47:46.735Z,15.03
2023-03-10T21:50:15.558Z,17.03
2023-03-10T21:52:45.885Z,15.77
2023-03-10T21:55:18.439Z,14.57
2023-03-10T21:57:46.497Z,13.90
2023-03-10T22:00:15.180Z,13.67
2023-03-10T22:02:43.310Z,14.00
2023-03-10T22:05:14.615Z,13.93
2023-03-10T22:07:42.468Z,13.43
2023-03-10T22:10:13.596Z,13.70
2023-03-10T22:12:41.803Z,13.63
2023-03-10T22:15:15.160Z,14.00
2023-03-10T22:17:43.184Z,13.87
2023-03-10T22:20:14.984Z,14.07
2023-03-10T22:22:42.712Z,12.63
2023-03-10T22:25:12.238Z,13.77
2023-03-10T22:27:40.141Z,12.93
2023-03-10T22:30:09.194Z,12.87
2023-03-10T22:32:37.172Z,13.40
2023-03-10T22:35:05.398Z,14.27
2023-03-10T22:37:33.241Z,13.30
2023-03-10T22:40:01.162Z,15.73
2023-03-10T22:42:30.292Z,14.33
2023-03-10T22:44:58.281Z,15.10
2023-03-10T22:47:26.172Z,15.13
2023-03-10T22:49:54.028Z,15.50
2023-03-10T22:52:21.866Z,14.77
2023-03-10T22:54:49.659Z,15.00
2023-03-10T22:57:17.463Z,15.00
2023-03-10T22:59:46.639Z,14.27
2023-03-10T23:02:14.427Z,14.33
2023-03-10T23:04:42.988Z,13.43
2023-03-10T23:07:10.883Z,12.83
2023-03-10T23:09:38.694Z,12.87
2023-03-10T23:12:06.866Z,11.80
2023-03-10T23:14:34.648Z,12.20
2023-03-10T23:17:04.103Z,11.97
2023-03-10T23:19:33.730Z,11.60
2023-03-10T23:22:01.612Z,11.17
2023-03-10T23:24:29.368Z,10.27
2023-03-10T23:26:57.166Z,9.83
2023-03-10T23:29:24.982Z,10.10
2023-03-10T23:31:52.802Z,9.17
2023-03-10T23:34:22.051Z,9.83
2023-03-10T23:36:50.033Z,9.30
2023-03-10T23:39:17.892Z,8.90
2023-03-10T23:41:45.677Z,9.13
2023-03-10T23:44:13.600Z,9.60
2023-03-10T23:46:41.485Z,9.43
2023-03-10T23:49:09.278Z,9.20
2023-03-10T23:51:38.474Z,9.23
2023-03-10T23:54:06.542Z,9.43
2023-03-10T23:56:34.394Z,9.70
2023-03-10T23:59:02.163Z,9.00
